Time;durP1;ratioP1;P1;durP2;ratioP2;P2;SDS_P1;SDS_P2;PMS_P1;PMS_P2;Temp;Humidity;BMP_temperature;BMP_pressure;BME280_temperature;BME280_humidity;BME280_pressure;Samples;Min_cycle;Max_cycle;Signal;HPM_P1;HPM_P2
2023/03/11 00:01:39;;;;;;;4.80;4.40;;;;;;;;;;5032527;28;20221;-46
2023/03/11 00:04:05;;;;;;;4.70;4.30;;;;;;;;;;5032408;28;20486;-46
2023/03/11 00:06:31;;;;;;;4.30;3.90;;;;;;;;;;5032304;28;20435;-47
2023/03/11 00:08:59;;;;;;;4.00;3.70;;;;;;;;;;5032261;28;20184;-46
2023/03/11 00:11:25;;;;;;;3.47;3.13;;;;;;;;;;5032541;28;20549;-46
2023/03/11 00:13:50;;;;;;;3.30;3.00;;;;;;;;;;5032432;28;20913;-46
2023/03/11 00:16:16;;;;;;;3.27;2.90;;;;;;;;;;5032347;28;20444;-46
2023/03/11 00:18:42;;;;;;;3.67;3.37;;;;;;;;;;5031934;28;20263;-46
2023/03/11 00:21:14;;;;;;;3.13;2.80;;;;;;;;;;5031984;28;20710;-48
2023/03/11 00:23:40;;;;;;;3.40;3.10;;;;;;;;;;5032254;28;20431;-47
2023/03/11 00:26:07;;;;;;;3.50;3.20;;;;;;;;;;5028546;28;20803;-47
2023/03/11 00:28:33;;;;;;;3.73;2.40;;;;;;;;;;5030522;28;20205;-46
2023/03/11 00:30:59;;;;;;;3.70;2.80;;;;;;;;;;5032520;28;20952;-46
2023/03/11 00:33:27;;;;;;;3.57;2.87;;;;;;;;;;5032107;28;20196;-46
2023/03/11 00:35:53;;;;;;;2.90;2.60;;;;;;;;;;5032150;28;20216;-46
2023/03/11 00:38:19;;;;;;;2.50;2.30;;;;;;;;;;5032197;28;20507;-46
2023/03/11 00:40:46;;;;;;;3.17;2.87;;;;;;;;;;5031966;28;20320;-46
2023/03/11 00:43:14;;;;;;;3.40;2.90;;;;;;;;;;5031958;28;20448;-46
2023/03/11 00:45:40;;;;;;;2.87;2.57;;;;;;;;;;5031964;28;20439;-46
2023/03/11 00:48:06;;;;;;;2.90;2.60;;;;;;;;;;5031627;28;20968;-46
2023/03/11 00:50:33;;;;;;;4.43;2.93;;;;;;;;;;5031943;28;20440;-46
2023/03/11 00:53:00;;;;;;;3.30;2.60;;;;;;;;;;5032026;28;20443;-46
2023/03/11 00:55:27;;;;;;;2.90;2.70;;;;;;;;;;5031878;28;20442;-46
2023/03/11 00:57:54;;;;;;;3.27;2.97;;;;;;;;;;5031940;28;20439;-46
2023/03/11 01:00:22;;;;;;;3.20;2.73;;;;;;;;;;5031729;28;20483;-46
2023/03/11 01:02:48;;;;;;;3.77;3.30;;;;;;;;;;5031566;28;20443;-47
2023/03/11 01:05:14;;;;;;;3.20;2.90;;;;;;;;;;5031983;28;20486;-46
2023/03/11 01:07:40;;;;;;;3.63;3.33;;;;;;;;;;5031692;28;20440;-46
2023/03/11 01:10:07;;;;;;;3.67;2.60;;;;;;;;;;5031938;28;20443;-46
2023/03/11 01:12:33;;;;;;;4.43;3.43;;;;;;;;;;5031655;28;20452;-46
2023/03/11 01:14:59;;;;;;;3.97;2.90;;;;;;;;;;5031786;28;20432;-46
2023/03/11 01:17:26;;;;;;;3.07;2.70;;;;;;;;;;5031655;28;20804;-46
2023/03/11 01:19:52;;;;;;;3.03;2.80;;;;;;;;;;5031562;28;20231;-46
2023/03/11 01:22:18;;;;;;;2.97;2.70;;;;;;;;;;5031676;28;20810;-46
2023/03/11 01:24:44;;;;;;;3.27;2.97;;;;;;;;;;5031629;28;20197;-46
2023/03/11 01:27:10;;;;;;;2.93;2.70;;;;;;;;;;5031683;28;20197;-46
2023/03/11 01:29:36;;;;;;;3.77;3.30;;;;;;;;;;5031222;28;20859;-46
2023/03/11 01:32:02;;;;;;;3.57;3.07;;;;;;;;;;5031653;28;20219;-46
2023/03/11 01:34:30;;;;;;;5.40;2.80;;;;;;;;;;5031479;28;20436;-46
2023/03/11 01:36:56;;;;;;;5.17;3.07;;;;;;;;;;5031583;28;20436;-46
2023/03/11 01:39:22;;;;;;;5.80;3.13;;;;;;;;;;5031412;28;21055;-46
2023/03/11 01:41:48;;;;;;;3.37;2.90;;;;;;;;;;5031472;28;20211;-46
2023/03/11 01:44:14;;;;;;;3.27;2.77;;;;;;;;;;5031502;28;20201;-46
2023/03/11 01:46:58;;;;;;;3.63;2.70;;;;;;;;;;5031388;28;20485;-46
2023/03/11 01:49:24;;;;;;;3.27;2.97;;;;;;;;;;5030994;28;20204;-46
2023/03/11 01:51:53;;;;;;;3.57;2.77;;;;;;;;;;5031452;28;20444;-46
2023/03/11 01:54:21;;;;;;;3.80;3.00;;;;;;;;;;5031442;28;20471;-47
2023/03/11 01:56:48;;;;;;;3.00;2.80;;;;;;;;;;5031325;28;20531;-46
2023/03/11 01:59:15;;;;;;;3.50;2.50;;;;;;;;;;5031307;28;20467;-46
2023/03/11 02:01:45;;;;;;;5.70;2.70;;;;;;;;;;5033883;28;21040;-46
2023/03/11 02:04:12;;;;;;;3.77;2.50;;;;;;;;;;5014257;28;20986;-46
2023/03/11 02:06:38;;;;;;;4.23;2.40;;;;;;;;;;5014967;28;20474;-46
2023/03/11 02:09:06;;;;;;;2.83;2.57;;;;;;;;;;5015361;28;20456;-46
2023/03/11 02:11:32;;;;;;;2.47;2.27;;;;;;;;;;5015119;28;20428;-46
2023/03/11 02:14:00;;;;;;;2.57;2.37;;;;;;;;;;5014797;28;20480;-46
2023/03/11 02:16:26;;;;;;;2.20;2.00;;;;;;;;;;5015095;28;20487;-46
2023/03/11 02:18:52;;;;;;;2.50;2.27;;;;;;;;;;5014758;28;20628;-46
2023/03/11 02:21:22;;;;;;;3.73;2.53;;;;;;;;;;5014819;28;20996;-47
2023/03/11 02:23:53;;;;;;;3.10;2.33;;;;;;;;;;5014643;28;20432;-46
2023/03/11 02:26:23;;;;;;;4.60;2.83;;;;;;;;;;5014800;28;20491;-46
2023/03/11 02:28:52;;;;;;;3.17;2.63;;;;;;;;;;5014783;28;20433;-46
2023/03/11 02:31:18;;;;;;;2.80;2.60;;;;;;;;;;5014825;28;20443;-45
2023/03/11 02:33:46;;;;;;;2.30;2.10;;;;;;;;;;5014518;28;20529;-46
2023/03/11 02:36:27;;;;;;;5.20;3.13;;;;;;;;;;5014667;28;20429;-46
2023/03/11 02:38:53;;;;;;;3.87;2.57;;;;;;;;;;5014079;28;20464;-46
2023/03/11 02:41:19;;;;;;;3.53;2.70;;;;;;;;;;5014512;28;20954;-46
2023/03/11 02:43:46;;;;;;;3.10;2.60;;;;;;;;;;5014624;28;20475;-47
2023/03/11 02:46:13;;;;;;;3.37;2.80;;;;;;;;;;5014785;28;20682;-46
2023/03/11 02:48:39;;;;;;;4.30;2.90;;;;;;;;;;5014301;28;20547;-46
2023/03/11 02:51:05;;;;;;;5.80;2.90;;;;;;;;;;5014589;28;20432;-46
2023/03/11 02:53:35;;;;;;;5.00;3.00;;;;;;;;;;5013885;28;20429;-46
2023/03/11 02:56:01;;;;;;;6.00;3.07;;;;;;;;;;5013702;28;20440;-46
2023/03/11 02:58:27;;;;;;;3.67;3.13;;;;;;;;;;5013467;28;20571;-47
2023/03/11 03:00:53;;;;;;;5.63;3.70;;;;;;;;;;5013308;28;20267;-47
2023/03/11 03:03:20;;;;;;;7.73;3.63;;;;;;;;;;5013191;28;20915;-45
2023/03/11 03:05:46;;;;;;;6.53;3.50;;;;;;;;;;5013543;28;20225;-45
2023/03/11 03:08:12;;;;;;;5.97;3.80;;;;;;;;;;5013517;28;20437;-46
2023/03/11 03:10:38;;;;;;;5.60;3.77;;;;;;;;;;5013303;28;20428;-45
2023/03/11 03:13:04;;;;;;;4.47;3.27;;;;;;;;;;5013675;28;20452;-45
2023/03/11 03:15:30;;;;;;;4.87;3.13;;;;;;;;;;5013520;28;20209;-45
2023/03/11 03:17:56;;;;;;;4.67;3.10;;;;;;;;;;5013213;28;20197;-45
2023/03/11 03:20:25;;;;;;;7.00;3.07;;;;;;;;;;5013204;28;20839;-46
2023/03/11 03:22:51;;;;;;;5.50;2.93;;;;;;;;;;5013079;28;20690;-45
2023/03/11 03:25:17;;;;;;;4.37;2.77;;;;;;;;;;5013279;28;20539;-45
2023/03/11 03:27:44;;;;;;;4.13;2.53;;;;;;;;;;5012903;28;20919;-45
2023/03/11 03:30:10;;;;;;;3.13;2.30;;;;;;;;;;5013589;28;20444;-46
2023/03/11 03:32:36;;;;;;;4.10;2.27;;;;;;;;;;5013507;28;20484;-46
2023/03/11 03:35:03;;;;;;;5.63;2.30;;;;;;;;;;5013521;28;20502;-46
2023/03/11 03:37:32;;;;;;;5.93;2.43;;;;;;;;;;5013610;28;20948;-46
2023/03/11 03:39:58;;;;;;;5.83;2.33;;;;;;;;;;5013467;28;20476;-46
2023/03/11 03:42:24;;;;;;;6.17;2.50;;;;;;;;;;5013502;28;20560;-46
2023/03/11 03:44:50;;;;;;;5.97;2.33;;;;;;;;;;5013360;28;20209;-46
2023/03/11 03:47:16;;;;;;;5.03;2.37;;;;;;;;;;5013446;28;20206;-45
2023/03/11 03:49:42;;;;;;;4.63;2.10;;;;;;;;;;5013396;28;20429;-45
2023/03/11 03:52:09;;;;;;;3.33;2.13;;;;;;;;;;5013271;28;20232;-46
2023/03/11 03:54:36;;;;;;;4.90;2.13;;;;;;;;;;5013136;28;20698;-46
2023/03/11 03:57:03;;;;;;;5.10;2.10;;;;;;;;;;5013237;28;20443;-45
2023/03/11 03:59:29;;;;;;;9.33;3.07;;;;;;;;;;5013086;28;20480;-46
2023/03/11 04:01:55;;;;;;;4.07;2.27;;;;;;;;;;5012992;28;20527;-46
2023/03/11 04:04:21;;;;;;;6.33;2.47;;;;;;;;;;5012925;28;20919;-46
2023/03/11 04:06:47;;;;;;;6.63;2.33;;;;;;;;;;5012899;28;20209;-46
2023/03/11 04:09:15;;;;;;;1.93;1.80;;;;;;;;;;5013090;28;20436;-46
2023/03/11 04:11:42;;;;;;;5.03;2.30;;;;;;;;;;5012810;28;20527;-46
2023/03/11 04:14:08;;;;;;;4.40;2.17;;;;;;;;;;5012958;28;20449;-46
2023/03/11 04:16:34;;;;;;;2.80;2.00;;;;;;;;;;5012921;28;20800;-45
2023/03/11 04:19:00;;;;;;;3.33;1.97;;;;;;;;;;5012758;28;20452;-46
2023/03/11 04:21:26;;;;;;;3.63;1.90;;;;;;;;;;5012700;28;20202;-45
2023/03/11 04:23:52;;;;;;;5.03;2.17;;;;;;;;;;5012026;28;20197;-46
2023/03/11 04:26:18;;;;;;;4.17;2.00;;;;;;;;;;5012647;28;20796;-46
2023/03/11 04:28:45;;;;;;;4.23;2.10;;;;;;;;;;5012575;28;20203;-45
2023/03/11 04:31:11;;;;;;;3.93;2.47;;;;;;;;;;5012642;28;20202;-46
2023/03/11 04:33:37;;;;;;;4.13;2.40;;;;;;;;;;5012510;28;20443;-46
2023/03/11 04:36:05;;;;;;;2.23;1.90;;;;;;;;;;5012449;28;20432;-46
2023/03/11 04:38:31;;;;;;;2.63;2.00;;;;;;;;;;5012448;28;20437;-48
2023/03/11 04:40:59;;;;;;;3.20;1.90;;;;;;;;;;5012480;28;20495;-47
2023/03/11 04:43:25;;;;;;;5.33;2.00;;;;;;;;;;5012600;28;20432;-47
2023/03/11 04:45:52;;;;;;;4.80;2.20;;;;;;;;;;5012331;28;20521;-47
2023/03/11 04:48:18;;;;;;;5.63;2.20;;;;;;;;;;5012572;28;20205;-47
2023/03/11 04:50:44;;;;;;;3.97;2.20;;;;;;;;;;5012076;28;20765;-45
2023/03/11 04:53:10;;;;;;;4.70;2.30;;;;;;;;;;5012307;28;20467;-45
2023/03/11 04:55:36;;;;;;;5.00;2.20;;;;;;;;;;5012127;28;20198;-45
2023/03/11 04:58:03;;;;;;;3.10;1.80;;;;;;;;;;5012265;28;20464;-45
2023/03/11 05:00:29;;;;;;;7.60;2.63;;;;;;;;;;5012120;28;20489;-45
2023/03/11 05:02:56;;;;;;;4.53;2.57;;;;;;;;;;5012077;28;20439;-46
2023/03/11 05:05:22;;;;;;;5.03;2.37;;;;;;;;;;5011970;28;20455;-45
2023/03/11 05:07:48;;;;;;;3.50;2.10;;;;;;;;;;5011928;28;20436;-45
2023/03/11 05:10:21;;;;;;;3.47;2.00;;;;;;;;;;5012134;28;20977;-45
2023/03/11 05:12:47;;;;;;;4.50;2.17;;;;;;;;;;5012159;28;20256;-46
2023/03/11 05:15:13;;;;;;;5.87;2.10;;;;;;;;;;5012181;28;20452;-46
2023/03/11 05:17:39;;;;;;;4.83;1.80;;;;;;;;;;5012033;28;20433;-45
2023/03/11 05:20:07;;;;;;;5.73;2.20;;;;;;;;;;5011944;28;20741;-46
2023/03/11 05:22:33;;;;;;;4.80;2.30;;;;;;;;;;5011962;28;20297;-46
2023/03/11 05:24:59;;;;;;;7.00;2.13;;;;;;;;;;5011973;28;20441;-46
2023/03/11 05:27:25;;;;;;;6.33;2.03;;;;;;;;;;5012113;28;20810;-46
2023/03/11 05:29:51;;;;;;;6.87;2.47;;;;;;;;;;5011902;28;20197;-45
2023/03/11 05:32:18;;;;;;;6.47;2.70;;;;;;;;;;5011875;28;20441;-45
2023/03/11 05:34:44;;;;;;;4.50;1.90;;;;;;;;;;5013357;28;20220;-46
2023/03/11 05:37:12;;;;;;;5.03;2.10;;;;;;;;;;5015752;28;20931;-46
2023/03/11 05:39:38;;;;;;;3.30;1.97;;;;;;;;;;5015675;28;20523;-46
2023/03/11 05:42:04;;;;;;;1.97;1.80;;;;;;;;;;5015851;28;20436;-46
2023/03/11 05:44:30;;;;;;;2.73;2.00;;;;;;;;;;5015936;28;20439;-47
2023/03/11 05:46:56;;;;;;;3.63;1.93;;;;;;;;;;5015918;28;20536;-47
2023/03/11 05:49:22;;;;;;;6.03;2.03;;;;;;;;;;5015833;28;20467;-47
2023/03/11 05:51:49;;;;;;;3.40;2.00;;;;;;;;;;5015470;28;20209;-46
2023/03/11 05:54:16;;;;;;;4.77;1.87;;;;;;;;;;5015498;28;20441;-47
2023/03/11 05:56:43;;;;;;;4.93;2.13;;;;;;;;;;5015373;28;20483;-46
2023/03/11 05:59:09;;;;;;;2.77;2.20;;;;;;;;;;5015372;28;20552;-46
2023/03/11 06:01:35;;;;;;;3.60;2.07;;;;;;;;;;5015180;28;20467;-45
2023/03/11 06:04:01;;;;;;;4.90;2.17;;;;;;;;;;5013186;28;20468;-45
2023/03/11 06:06:27;;;;;;;4.03;1.70;;;;;;;;;;5015023;28;20471;-45
2023/03/11 06:08:54;;;;;;;4.47;2.03;;;;;;;;;;5015510;28;20566;-46
2023/03/11 06:11:24;;;;;;;4.07;1.93;;;;;;;;;;5015397;28;20429;-46
2023/03/11 06:13:52;;;;;;;2.87;1.93;;;;;;;;;;5015129;28;20452;-46
2023/03/11 06:16:18;;;;;;;3.73;1.87;;;;;;;;;;5015025;28;20448;-46
2023/03/11 06:18:44;;;;;;;2.33;1.77;;;;;;;;;;5014900;28;20800;-46
2023/03/11 06:21:15;;;;;;;6.27;1.90;;;;;;;;;;5014704;28;20245;-46
2023/03/11 06:23:41;;;;;;;4.30;1.93;;;;;;;;;;5014927;28;20268;-46
2023/03/11 06:26:07;;;;;;;3.00;1.87;;;;;;;;;;5014787;28;20448;-46
2023/03/11 06:28:34;;;;;;;3.73;1.90;;;;;;;;;;5014875;28;20297;-46
2023/03/11 06:31:06;;;;;;;5.33;1.93;;;;;;;;;;5014710;28;20201;-46
2023/03/11 06:33:32;;;;;;;4.13;2.07;;;;;;;;;;5014926;28;20437;-47
2023/03/11 06:35:58;;;;;;;6.30;2.30;;;;;;;;;;5014561;28;21014;-47
2023/03/11 06:38:25;;;;;;;3.97;2.10;;;;;;;;;;5014718;28;20207;-47
2023/03/11 06:40:51;;;;;;;7.83;2.10;;;;;;;;;;5014384;28;21041;-46
2023/03/11 06:43:17;;;;;;;6.13;2.30;;;;;;;;;;5014328;28;20960;-48
2023/03/11 06:45:44;;;;;;;4.47;2.20;;;;;;;;;;5013645;28;20440;-47
2023/03/11 06:48:10;;;;;;;4.27;1.90;;;;;;;;;;5014657;28;20576;-47
2023/03/11 06:50:36;;;;;;;3.27;2.30;;;;;;;;;;5010717;28;20923;-47
2023/03/11 06:53:05;;;;;;;5.07;2.30;;;;;;;;;;5014033;28;20209;-47
2023/03/11 06:55:31;;;;;;;2.97;2.13;;;;;;;;;;5013847;28;20440;-47
2023/03/11 06:57:57;;;;;;;3.60;1.97;;;;;;;;;;5011837;28;20469;-47
2023/03/11 07:00:23;;;;;;;3.73;1.97;;;;;;;;;;5013752;28;20487;-47
2023/03/11 07:02:50;;;;;;;6.57;2.47;;;;;;;;;;5013363;28;20205;-47
2023/03/11 07:05:16;;;;;;;5.33;1.80;;;;;;;;;;5011872;28;20202;-47
2023/03/11 07:07:43;;;;;;;2.53;1.90;;;;;;;;;;5013416;28;20429;-46
2023/03/11 07:10:09;;;;;;;2.17;1.80;;;;;;;;;;5013334;28;20487;-47
2023/03/11 07:12:35;;;;;;;4.43;2.00;;;;;;;;;;5013293;28;20437;-46
2023/03/11 07:15:02;;;;;;;6.63;2.00;;;;;;;;;;5010475;28;20852;-48
2023/03/11 07:17:28;;;;;;;3.67;2.37;;;;;;;;;;5012853;28;20198;-47
2023/03/11 07:19:55;;;;;;;2.13;1.87;;;;;;;;;;5013144;28;21124;-46
2023/03/11 07:22:21;;;;;;;2.67;1.83;;;;;;;;;;5013337;28;20202;-47
2023/03/11 07:24:47;;;;;;;3.33;1.70;;;;;;;;;;5013071;28;20804;-47
2023/03/11 07:27:14;;;;;;;5.00;1.80;;;;;;;;;;5013465;28;20597;-47
2023/03/11 07:29:40;;;;;;;3.70;2.30;;;;;;;;;;5013134;28;20443;-47
2023/03/11 07:32:06;;;;;;;3.77;2.10;;;;;;;;;;5013130;28;20436;-47
2023/03/11 07:34:32;;;;;;;3.30;2.10;;;;;;;;;;5013073;28;20449;-47
2023/03/11 07:36:59;;;;;;;2.07;1.70;;;;;;;;;;5012894;28;20448;-47
2023/03/11 07:39:25;;;;;;;4.90;1.77;;;;;;;;;;5013024;28;20194;-47
2023/03/11 07:41:51;;;;;;;4.57;1.70;;;;;;;;;;5012920;28;20782;-47
2023/03/11 07:44:18;;;;;;;2.77;2.00;;;;;;;;;;5012481;28;20979;-47
2023/03/11 07:46:44;;;;;;;2.23;1.80;;;;;;;;;;5007540;28;20201;-47
2023/03/11 07:49:10;;;;;;;8.03;5.53;;;;;;;;;;5011881;28;20460;-47
2023/03/11 07:51:37;;;;;;;3.03;2.10;;;;;;;;;;5012440;28;20437;-46
2023/03/11 07:54:05;;;;;;;3.13;2.00;;;;;;;;;;5012414;28;20528;-48
2023/03/11 07:56:31;;;;;;;3.50;2.57;;;;;;;;;;5012448;28;20471;-48
2023/03/11 07:58:59;;;;;;;3.07;2.00;;;;;;;;;;5011213;28;20463;-48
2023/03/11 08:01:26;;;;;;;4.37;2.00;;;;;;;;;;5012341;28;20484;-48
2023/03/11 08:03:57;;;;;;;3.40;1.60;;;;;;;;;;5012201;28;20476;-47
2023/03/11 08:06:24;;;;;;;2.80;1.80;;;;;;;;;;5012500;28;20451;-48
2023/03/11 08:08:50;;;;;;;3.93;1.90;;;;;;;;;;5012220;28;20428;-48
2023/03/11 08:11:19;;;;;;;3.40;1.80;;;;;;;;;;5012249;28;20528;-48
2023/03/11 08:13:46;;;;;;;3.63;1.87;;;;;;;;;;5012119;28;20433;-48
2023/03/11 08:16:13;;;;;;;5.07;2.33;;;;;;;;;;5012243;28;20943;-48
2023/03/11 08:18:39;;;;;;;3.10;1.83;;;;;;;;;;5011948;28;20491;-48
2023/03/11 08:21:05;;;;;;;2.73;1.90;;;;;;;;;;5011921;28;20488;-48
2023/03/11 08:23:31;;;;;;;4.40;2.03;;;;;;;;;;5012013;28;20440;-48
2023/03/11 08:25:58;;;;;;;2.20;1.93;;;;;;;;;;5012153;28;20872;-49
2023/03/11 08:28:25;;;;;;;3.40;1.77;;;;;;;;;;5012306;28;21000;-48
2023/03/11 08:30:51;;;;;;;3.43;1.70;;;;;;;;;;5012059;28;20536;-48
2023/03/11 08:33:17;;;;;;;4.70;1.77;;;;;;;;;;5012056;28;20444;-49
2023/03/11 08:35:43;;;;;;;4.70;1.90;;;;;;;;;;5012206;28;20816;-48
2023/03/11 08:38:09;;;;;;;2.40;2.00;;;;;;;;;;5012067;28;20194;-47
2023/03/11 08:40:35;;;;;;;3.47;1.90;;;;;;;;;;5011835;28;20484;-48
2023/03/11 08:43:04;;;;;;;5.67;1.90;;;;;;;;;;5011562;28;20197;-49
2023/03/11 08:45:31;;;;;;;2.47;1.70;;;;;;;;;;5011817;28;20436;-48
2023/03/11 08:47:57;;;;;;;4.30;1.87;;;;;;;;;;5011593;28;20964;-48
2023/03/11 08:50:23;;;;;;;2.60;1.67;;;;;;;;;;5011878;28;20512;-48
2023/03/11 08:52:49;;;;;;;3.97;1.90;;;;;;;;;;5011957;28;20204;-48
2023/03/11 08:55:22;;;;;;;3.10;1.53;;;;;;;;;;4994162;28;20468;-56
2023/03/11 08:57:48;;;;;;;4.23;1.90;;;;;;;;;;5011782;28;20436;-49
2023/03/11 09:00:14;;;;;;;5.73;2.10;;;;;;;;;;5011624;28;20484;-48
2023/03/11 09:02:42;;;;;;;2.37;1.67;;;;;;;;;;5011488;28;20896;-48
2023/03/11 09:05:09;;;;;;;6.27;1.80;;;;;;;;;;5011228;28;20901;-49
2023/03/11 09:07:35;;;;;;;4.20;1.70;;;;;;;;;;5011771;28;20761;-48
2023/03/11 09:10:01;;;;;;;3.03;1.80;;;;;;;;;;5011267;28;20738;-48
2023/03/11 09:12:27;;;;;;;2.80;1.80;;;;;;;;;;5011573;28;20206;-49
2023/03/11 09:14:55;;;;;;;4.40;1.60;;;;;;;;;;5011617;28;20724;-47
2023/03/11 09:17:21;;;;;;;8.93;5.27;;;;;;;;;;5011792;28;20197;-48
2023/03/11 09:19:48;;;;;;;6.27;2.80;;;;;;;;;;5011452;28;20298;-49
2023/03/11 09:22:14;;;;;;;1.90;1.70;;;;;;;;;;5011750;28;20300;-48
2023/03/11 09:24:40;;;;;;;3.00;1.93;;;;;;;;;;5011655;28;20234;-48
2023/03/11 09:27:06;;;;;;;5.47;2.00;;;;;;;;;;5011289;28;20201;-48
2023/03/11 09:29:32;;;;;;;5.63;1.80;;;;;;;;;;5011174;28;20202;-48
2023/03/11 09:32:02;;;;;;;4.20;1.80;;;;;;;;;;5011031;28;20240;-49
2023/03/11 09:34:27;;;;;;;2.97;1.50;;;;;;;;;;5008051;28;20202;-48
2023/03/11 09:36:55;;;;;;;2.10;1.63;;;;;;;;;;5011594;28;20208;-47
2023/03/11 09:39:21;;;;;;;4.77;1.93;;;;;;;;;;5011296;28;20205;-47
2023/03/11 09:41:52;;;;;;;2.47;1.63;;;;;;;;;;5007757;28;20309;-47
2023/03/11 09:44:20;;;;;;;7.43;2.00;;;;;;;;;;5011462;28;20660;-48
2023/03/11 09:47:01;;;;;;;2.87;1.60;;;;;;;;;;5011132;28;20198;-48
2023/03/11 09:49:32;;;;;;;5.07;1.80;;;;;;;;;;5008668;28;20197;-48
2023/03/11 09:52:03;;;;;;;3.90;1.77;;;;;;;;;;5011252;28;20204;-48
2023/03/11 09:54:30;;;;;;;2.63;2.00;;;;;;;;;;5011143;28;20212;-48
2023/03/11 09:56:56;;;;;;;3.63;1.87;;;;;;;;;;5011063;28;20197;-48
2023/03/11 09:59:25;;;;;;;5.97;2.00;;;;;;;;;;5011124;28;20675;-47
2023/03/11 10:01:51;;;;;;;3.97;1.90;;;;;;;;;;5010885;28;20748;-47
2023/03/11 10:04:20;;;;;;;5.07;2.10;;;;;;;;;;5010945;28;20234;-47
2023/03/11 10:06:46;;;;;;;3.57;1.70;;;;;;;;;;5011023;28;20586;-47
2023/03/11 10:09:25;;;;;;;1.67;1.53;;;;;;;;;;5010908;28;20605;-48
2023/03/11 10:11:55;;;;;;;3.00;1.87;;;;;;;;;;5011153;28;20256;-48
2023/03/11 10:14:29;;;;;;;3.27;1.60;;;;;;;;;;5011067;28;20205;-48
2023/03/11 10:17:00;;;;;;;2.20;1.40;;;;;;;;;;5010914;28;20276;-48
2023/03/11 10:19:32;;;;;;;4.60;1.97;;;;;;;;;;5010695;28;20244;-47
2023/03/11 10:22:07;;;;;;;3.07;1.90;;;;;;;;;;5012648;28;20431;-48
2023/03/11 10:24:44;;;;;;;2.60;1.80;;;;;;;;;;5014452;28;20205;-48
2023/03/11 10:27:13;;;;;;;5.93;1.80;;;;;;;;;;5014234;28;20204;-48
2023/03/11 10:29:44;;;;;;;4.20;1.80;;;;;;;;;;5014582;28;20583;-49
2023/03/11 10:32:13;;;;;;;6.43;2.50;;;;;;;;;;5014376;28;20198;-49
2023/03/11 10:34:43;;;;;;;2.47;1.70;;;;;;;;;;5014097;28;20238;-49
2023/03/11 10:37:11;;;;;;;3.63;1.57;;;;;;;;;;5014146;28;20198;-49
2023/03/11 10:39:41;;;;;;;1.80;1.20;;;;;;;;;;5013960;28;20205;-49
2023/03/11 10:42:13;;;;;;;4.33;2.00;;;;;;;;;;5013877;28;20201;-50
2023/03/11 10:44:40;;;;;;;3.10;1.60;;;;;;;;;;5014426;28;20208;-48
2023/03/11 10:47:06;;;;;;;4.77;2.00;;;;;;;;;;5013964;28;20209;-48
2023/03/11 10:49:33;;;;;;;4.20;1.80;;;;;;;;;;5013927;28;20190;-48
2023/03/11 10:51:59;;;;;;;2.83;1.80;;;;;;;;;;5013965;28;20247;-48
2023/03/11 10:54:26;;;;;;;2.97;1.70;;;;;;;;;;5013902;28;20198;-48
2023/03/11 10:56:57;;;;;;;3.77;1.70;;;;;;;;;;5013704;28;20205;-48
2023/03/11 10:59:25;;;;;;;3.07;1.60;;;;;;;;;;5013960;28;20256;-49
2023/03/11 11:01:55;;;;;;;2.83;1.50;;;;;;;;;;5013665;28;20225;-48
2023/03/11 11:04:34;;;;;;;3.00;1.90;;;;;;;;;;5013649;28;20237;-50
2023/03/11 11:07:19;;;;;;;2.70;1.70;;;;;;;;;;5013520;28;20201;-48
2023/03/11 11:09:45;;;;;;;4.53;2.03;;;;;;;;;;5013603;28;20205;-48
2023/03/11 11:12:13;;;;;;;3.53;1.80;;;;;;;;;;5013599;28;20731;-48
2023/03/11 11:14:47;;;;;;;3.17;1.67;;;;;;;;;;5013554;28;20288;-48
2023/03/11 11:17:16;;;;;;;4.60;1.87;;;;;;;;;;5013602;28;20213;-48
2023/03/11 11:19:43;;;;;;;5.77;1.90;;;;;;;;;;5013229;28;20204;-48
2023/03/11 11:22:13;;;;;;;3.57;1.60;;;;;;;;;;5013223;28;20719;-47
2023/03/11 11:24:43;;;;;;;2.73;1.70;;;;;;;;;;5013370;28;20201;-49
2023/03/11 11:27:15;;;;;;;2.60;1.50;;;;;;;;;;5013461;28;20285;-48
2023/03/11 11:29:41;;;;;;;5.73;1.83;;;;;;;;;;5013121;28;20217;-50
2023/03/11 11:32:20;;;;;;;5.43;2.20;;;;;;;;;;5013055;28;20205;-49
2023/03/11 11:34:53;;;;;;;2.73;1.70;;;;;;;;;;5013051;28;20217;-49
2023/03/11 11:37:19;;;;;;;2.13;1.50;;;;;;;;;;5013008;28;20589;-50
2023/03/11 11:39:50;;;;;;;2.70;1.70;;;;;;;;;;5012859;28;20197;-49
2023/03/11 11:42:16;;;;;;;3.17;1.70;;;;;;;;;;5013093;28;20197;-49
2023/03/11 11:44:43;;;;;;;4.63;1.80;;;;;;;;;;5012915;28;20198;-48
2023/03/11 11:47:13;;;;;;;2.80;1.47;;;;;;;;;;5013027;28;20205;-47
2023/03/11 11:49:43;;;;;;;3.17;1.60;;;;;;;;;;5012735;28;20197;-48
2023/03/11 11:52:13;;;;;;;2.80;1.70;;;;;;;;;;5012792;28;20568;-47
2023/03/11 11:54:42;;;;;;;3.63;1.97;;;;;;;;;;5012661;28;20208;-48
2023/03/11 11:57:11;;;;;;;2.90;1.53;;;;;;;;;;5012657;28;20205;-47
2023/03/11 11:59:37;;;;;;;3.77;1.97;;;;;;;;;;5012564;28;20202;-47
2023/03/11 12:02:07;;;;;;;3.47;1.73;;;;;;;;;;5012516;28;20405;-48
2023/03/11 12:04:38;;;;;;;4.27;1.83;;;;;;;;;;5012385;28;20237;-49
2023/03/11 12:07:12;;;;;;;2.93;1.60;;;;;;;;;;5012368;28;20201;-49
2023/03/11 12:09:43;;;;;;;2.67;1.70;;;;;;;;;;5012463;28;20562;-49
2023/03/11 12:12:16;;;;;;;4.47;1.70;;;;;;;;;;5012571;28;20267;-48
2023/03/11 12:14:45;;;;;;;4.33;1.83;;;;;;;;;;5012350;28;20209;-48
2023/03/11 12:17:12;;;;;;;2.87;1.70;;;;;;;;;;5012209;28;20205;-48
2023/03/11 12:19:42;;;;;;;4.57;1.97;;;;;;;;;;5012115;28;20193;-48
2023/03/11 12:22:27;;;;;;;4.23;1.93;;;;;;;;;;5012247;28;20675;-48
2023/03/11 12:25:16;;;;;;;4.37;1.90;;;;;;;;;;5011797;28;20185;-48
2023/03/11 12:27:44;;;;;;;5.27;2.13;;;;;;;;;;5011017;28;20577;-47
2023/03/11 12:30:12;;;;;;;6.13;1.77;;;;;;;;;;5011455;28;20284;-48
2023/03/11 12:32:41;;;;;;;3.43;1.80;;;;;;;;;;5011779;28;20205;-48
2023/03/11 12:35:09;;;;;;;4.07;1.77;;;;;;;;;;5011946;28;20208;-48
2023/03/11 12:37:35;;;;;;;2.60;1.50;;;;;;;;;;5012017;28;20256;-48
2023/03/11 12:40:16;;;;;;;3.10;1.67;;;;;;;;;;5011294;28;20236;-49
2023/03/11 12:42:44;;;;;;;3.13;1.90;;;;;;;;;;5010679;28;20202;-50
2023/03/11 12:45:28;;;;;;;6.90;1.90;;;;;;;;;;5010900;28;20216;-49
2023/03/11 12:48:09;;;;;;;8.73;3.30;;;;;;;;;;5010654;28;20236;-49
2023/03/11 12:50:38;;;;;;;3.53;1.87;;;;;;;;;;5011002;28;20203;-50
2023/03/11 12:53:04;;;;;;;4.30;1.90;;;;;;;;;;5011410;28;20204;-50
2023/03/11 12:55:31;;;;;;;3.10;1.80;;;;;;;;;;5011455;28;20205;-51
2023/03/11 12:58:06;;;;;;;2.97;1.73;;;;;;;;;;5011497;28;20202;-49
2023/03/11 13:00:40;;;;;;;4.13;2.57;;;;;;;;;;5011693;28;20294;-49
2023/03/11 13:03:14;;;;;;;4.70;2.10;;;;;;;;;;5011241;28;20716;-49
2023/03/11 13:05:49;;;;;;;5.10;1.90;;;;;;;;;;5011448;28;20229;-50
2023/03/11 13:08:17;;;;;;;3.67;1.90;;;;;;;;;;5011735;28;20209;-50
2023/03/11 13:10:44;;;;;;;2.23;1.70;;;;;;;;;;5011389;28;20185;-50
2023/03/11 13:13:32;;;;;;;3.30;1.83;;;;;;;;;;5011424;28;20259;-51
2023/03/11 13:16:18;;;;;;;3.63;1.90;;;;;;;;;;5011293;28;20573;-49
2023/03/11 13:18:46;;;;;;;3.33;1.70;;;;;;;;;;5011275;28;20540;-50
2023/03/11 13:21:27;;;;;;;4.20;1.80;;;;;;;;;;5011241;28;20221;-51
2023/03/11 13:24:14;;;;;;;4.90;1.80;;;;;;;;;;5010310;28;20252;-50
2023/03/11 13:26:40;;;;;;;4.57;1.90;;;;;;;;;;5011155;28;20193;-49
2023/03/11 13:29:20;;;;;;;4.53;2.10;;;;;;;;;;5011332;28;20211;-56
2023/03/11 13:31:55;;;;;;;5.87;2.50;;;;;;;;;;5011136;28;20601;-49
2023/03/11 13:34:27;;;;;;;5.77;2.47;;;;;;;;;;5008742;28;20292;-49
2023/03/11 13:37:10;;;;;;;2.07;1.77;;;;;;;;;;5010583;28;20668;-49
2023/03/11 13:39:41;;;;;;;2.73;2.00;;;;;;;;;;5011179;28;20583;-49
2023/03/11 13:42:16;;;;;;;3.97;2.10;;;;;;;;;;5011045;28;20278;-50
2023/03/11 13:44:42;;;;;;;3.53;1.73;;;;;;;;;;5011269;28;20215;-49
2023/03/11 13:47:10;;;;;;;5.60;1.77;;;;;;;;;;5010978;28;20210;-49
2023/03/11 13:49:41;;;;;;;3.40;2.00;;;;;;;;;;5011069;28;20212;-50
2023/03/11 13:52:08;;;;;;;5.50;2.10;;;;;;;;;;5010313;28;20654;-51
2023/03/11 13:54:41;;;;;;;2.77;1.70;;;;;;;;;;5011066;28;20209;-50
2023/03/11 13:57:15;;;;;;;3.77;1.80;;;;;;;;;;5014748;28;20550;-51
2023/03/11 13:59:41;;;;;;;2.93;1.73;;;;;;;;;;5014948;28;20197;-50
2023/03/11 14:02:14;;;;;;;4.93;2.10;;;;;;;;;;5014496;28;20236;-51
2023/03/11 14:04:46;;;;;;;3.60;1.77;;;;;;;;;;5014560;28;20237;-50
2023/03/11 14:07:13;;;;;;;3.33;1.70;;;;;;;;;;5014756;28;20190;-50
2023/03/11 14:09:39;;;;;;;3.27;2.20;;;;;;;;;;5014805;28;20236;-50
2023/03/11 14:12:08;;;;;;;5.67;2.10;;;;;;;;;;5014660;28;20194;-50
2023/03/11 14:14:42;;;;;;;3.47;1.60;;;;;;;;;;5014717;28;20723;-46
2023/03/11 14:17:13;;;;;;;2.57;1.90;;;;;;;;;;5014520;28;20202;-50
2023/03/11 14:19:38;;;;;;;3.13;1.90;;;;;;;;;;5014585;28;20289;-50
2023/03/11 14:22:07;;;;;;;2.70;1.77;;;;;;;;;;5014387;28;20324;-50
2023/03/11 14:24:33;;;;;;;3.23;1.97;;;;;;;;;;5014808;28;20202;-51
2023/03/11 14:27:00;;;;;;;6.80;2.40;;;;;;;;;;5014543;28;20602;-49
2023/03/11 14:29:29;;;;;;;5.57;1.90;;;;;;;;;;5014533;28;20200;-50
2023/03/11 14:31:56;;;;;;;3.73;2.00;;;;;;;;;;5014340;28;20205;-50
2023/03/11 14:34:24;;;;;;;2.43;1.43;;;;;;;;;;5014377;28;20664;-50
2023/03/11 14:36:53;;;;;;;5.27;1.80;;;;;;;;;;5014343;28;20580;-50
2023/03/11 14:39:25;;;;;;;5.57;1.90;;;;;;;;;;5014375;28;20252;-51
2023/03/11 14:41:52;;;;;;;4.50;1.77;;;;;;;;;;5014155;28;20229;-52
2023/03/11 14:44:19;;;;;;;3.83;1.63;;;;;;;;;;5014159;28;20229;-50
2023/03/11 14:46:45;;;;;;;3.13;1.60;;;;;;;;;;5014269;28;20208;-51
2023/03/11 14:49:16;;;;;;;6.10;2.13;;;;;;;;;;5012289;28;20232;-49